x

Orange Beach - 44 Nm Se Of Mobile, Al (42012) Wave Buoy

12:50am - Thu 28th Aug 2014 All times are CDT. -5 hours from GMT.

  • Sig Wave height 2.3ft
  • Swell Direction
  • Peak Period 6s
  • Average Period 5s
  • Wind
    2mph
  • Sea Temp 85°f
  • Air Temp 84°f
  • Sea Pressure 1015.9mb
  • Orange Beach - 44 Nm Se Of Mobile, Al
  • Orange Beach - 44 Nm Se Of Mobile, Al

More Historic Weather Station data

Upgrade to MSW Pro to gain access to the past 30 days of data for over 8000 Wavebouys and Weather Stations around the globe.

Join Pro

Comparision Forecast

View Surf forecast
   
Thu 08/28 12:50am 2.5ft 6s 5s 2
mph
1015.9mb 85f 84f
Wed 08/27 11:50pm 2.5ft 6s 5s 2 4 mph 1016mb 85f 84f
10:50pm 2.5ft 6s 5s 2
mph
1015.8mb 85f 84f
9:50pm 2.5ft 6s 5s 7 9 mph 1015.9mb 85f 84f
8:50pm 2.5ft 7s 5s 4 7 mph 1015.5mb 85f 84f
7:50pm 3ft 6s 5s 9 11 mph 1015.1mb 85f 84f
6:50pm 3ft 6s 5s 11 13 mph 1015mb 86f 84f
5:50pm 3ft 6s 5s 11 13 mph 1015mb 86f 84f
4:50pm 3ft 6s 4s 11
mph
1015.2mb 86f 84f
3:50pm 3.5ft 6s 4s 11 13 mph 1015.5mb 86f 84f
2:50pm 3.5ft 6s 4s 11 16 mph 1016.1mb 86f 84f
1:50pm 3ft 6s 4s 13 16 mph 1016.7mb 85f 84f
12:50pm 3.5ft 6s 4s 16 18 mph 1017.1mb 85f 84f
11:50am 3.5ft 5s 4s 13 18 mph 1017.4mb 85f 84f
10:50am 3.5ft 6s 4s 18 22 mph 1017.1mb 85f 83f
9:50am 3ft 6s 4s 18 20 mph 1016.8mb 85f 82f
8:50am 2.5ft 6s 4s 16 20 mph 1016.4mb 85f 82f
7:50am 2.5ft 6s 4s 13 16 mph 1015.9mb 85f 82f
6:50am 2ft 6s 4s 9 11 mph 1015.6mb 85f 82f
5:50am 2ft 6s 4s 9 11 mph 1015.2mb 85f 82f
4:50am 2ft 6s 4s 7 9 mph 1014.7mb 85f 83f
3:50am 2ft 5s 4s 4 7 mph 1014.7mb 85f 83f
2:50am 2.5ft 6s 5s 7 9 mph 1015mb 85f 83f
1:50am 2.5ft 6s 5s 9 11 mph 1015.1mb 85f 83f
12:50am 2.5ft 6s 5s 7 9 mph 1015.2mb 85f 84f
Tue 08/26 11:50pm 2.5ft 7s 5s 7
mph
1015.2mb 85f 84f
10:50pm 2.5ft 7s 5s 7
mph
1015.3mb 85f 84f
9:50pm 2.5ft 7s 5s 4 7 mph 1015.4mb 85f 84f
8:50pm 3ft 7s 5s 4 7 mph 1015mb 86f 84f
7:50pm 3ft 6s 5s 4 7 mph 1014.8mb 86f 84f
6:50pm 3.5ft 7s 5s 7 9 mph 1014.6mb 86f 84f
5:50pm 3.5ft 6s 5s 13
mph
1014.5mb 86f 84f
4:50pm 4ft 7s 5s 11 13 mph 1014.6mb 86f 83f
3:50pm 4.5ft 7s 5s 13 16 mph 1014.9mb 86f 83f
2:50pm 4.5ft 6s 5s 13 16 mph 1015.2mb 86f 82f
1:50pm 5ft 7s 5s 16 18 mph 1015.6mb 86f 82f
12:50pm 5ft 7s 5s 16 18 mph 1015.9mb 86f 81f
11:50am 5ft 7s 5s 18 22 mph 1016mb 86f 81f
10:50am 5ft 6s 5s 18 20 mph 1016mb 85f 81f
9:50am 5.5ft 6s 5s 20 22 mph 1015.6mb 85f 81f
8:50am 5ft 6s 5s 20 25 mph 1015.1mb 85f 82f
7:50am 5ft 6s 5s 22 27 mph 1014.8mb 85f 82f
6:50am 6ft 6s 5s 22 27 mph 1014.4mb 86f 82f
5:50am 5.5ft 6s 5s 22 27 mph 1013.3mb 86f 83f
4:50am 5ft 6s 5s 22 27 mph 1013.2mb 86f 83f
3:50am 5ft 6s 5s 22 27 mph 1012.8mb 86f 84f
2:50am 4.5ft 5s 4s 22 27 mph 1012.7mb 86f 84f
1:50am 4ft 6s 4s 20 25 mph 1013.3mb 86f 84f
12:50am 4ft 5s 4s 18 20 mph 1013.5mb 86f 84f
Mon 08/25 11:50pm 3.5ft 7s 4s 18 22 mph 1013.7mb 86f 85f
10:50pm 3.5ft 7s 4s 18 22 mph 1013.8mb 86f 86f
9:50pm 3.5ft 7s 4s 18 20 mph 1013.5mb 86f 86f
8:50pm 3.5ft 6s 4s 13 16 mph 1012.9mb 86f 86f
7:50pm 3.5ft 7s 4s 16 20 mph 1011.7mb 86f 86f
6:50pm 3.5ft 6s 4s 13 18 mph 1011.4mb 86f 85f
5:50pm 3.5ft 6s 5s 16 18 mph 1011.6mb 87f 85f
4:50pm 3.5ft 7s 5s 16 20 mph 1012.1mb 87f 85f
3:50pm 4ft 7s 5s 16 20 mph 1012.5mb 87f 84f
2:50pm 4.5ft 6s 5s 18 20 mph 1012.9mb 87f 83f
1:50pm 5ft 6s 5s 18 22 mph 1013.5mb 86f 83f
12:50pm 5ft 6s 5s 22 27 mph 1013.7mb 86f 83f
11:50am 5ft 6s 5s 22 27 mph 1013.8mb 86f 82f
10:50am 6ft 7s 5s 25 27 mph 1013.6mb 86f 82f
9:50am 6ft 6s 5s 25 29 mph 1013.4mb 87f 83f
8:50am 6.5ft 6s 5s 25 29 mph 1012.9mb 87f 83f
7:50am 5.5ft 6s 5s 27 31 mph 1012.6mb 87f 83f
6:50am 6ft 6s 5s 27 31 mph 1011.9mb 87f 83f
5:50am 4.5ft 6s 5s 25 31 mph 1011.1mb 87f 84f
4:50am 4ft 5s 4s 25 27 mph 1010.9mb 87f 83f
3:50am 3.5ft 5s 4s 20 22 mph 1011.1mb 87f 84f
2:50am 2.5ft 5s 4s 20 25 mph 1011.1mb 87f 84f
1:50am 2ft 4s 4s 20 25 mph 1011.1mb 87f 85f
12:50am 1.6ft 4s 3s 16 20 mph 1011.4mb 87f 84f
Sun 08/24 11:50pm 2ft 4s 4s 13 18 mph 1012.1mb 87f 84f
10:50pm 1.6ft 3s 3s 16 18 mph 1012.1mb 87f 84f
9:50pm 1ft 3s 3s 13 20 mph 1011.7mb 88f 82f
8:50pm 0.7ft  -  3s 11 13 mph 1010.7mb 88f 88f
7:50pm 0.7ft  -  3s 9 11 mph 1010mb 88f 89f
6:50pm 1ft 6s 3s 2 4 mph 1010mb 88f 88f
5:50pm 0.7ft  -  3s 13 18 mph 1010.2mb 89f 88f
4:50pm 0.7ft  -  4s 11 13 mph 1010.2mb 90f 88f
3:50pm 0.7ft  -  5s 9
mph
1010.3mb 90f 89f
2:50pm 0.7ft  -  4s 7
mph
1010.9mb 90f 90f
1:50pm 0.7ft  -  4s 2 4 mph 1011.5mb 89f 89f
12:50pm 0.7ft  -  4s 7 9 mph 1012.2mb 88f 87f
11:50am 1ft 7s 3s 7
mph
1012.7mb 87f 86f
10:50am 1ft 6s 3s 7 9 mph 1012.9mb 87f 85f
9:50am 1ft 4s 3s 13 16 mph 1012.8mb 87f 85f
8:50am 1ft 3s 3s 11 13 mph 1012.8mb 86f 85f
7:50am 1.3ft 3s 3s 13 16 mph 1012.7mb 87f 85f